Nearby METAR Reports

 

KFIT - Fitchburg, Massachusetts, USA
Distance from station: E 7mi, 11km
Updated: Thu, 12/14/2017 4:52pm
Clear
Clear
 Wind from WNW
Wind: WNW 7 mph , 11 km/h
Temperature: 23°F , -5°C
Wind Chill: 15°F , -9°C
Dew Point: 7°F , -14°C
Humidity: 50%
Barometer: 29.80 inHg , 1009.1 hPa
Clouds: Clear
Visibility: 10 miles , 16 km
2017/12/14 21:52 KFIT 142152Z AUTO 29006KT 10SM CLR M05/M14 A2980 RMK AO2 SLP097 T10501144
KAFN - Jaffrey, New Hampshire, USA
Distance from station: NNW 18mi, 29km
Updated: Thu, 12/14/2017 4:52pm
Clear
Clear
 Wind from W
Wind: W 10 mph , 17 km/h
Temperature: 18°F , -8°C
Wind Chill: 6°F , -14°C
Dew Point: 3°F , -16°C
Humidity: 53%
Barometer: 29.75 inHg , 1007.5 hPa
Clouds: Clear
Visibility: 10 miles , 16 km
2017/12/14 21:52 KAFN 142152Z AUTO 26009KT 10SM CLR M08/M16 A2975 RMK AO2 SLP097 T10781156
 
KORH - Worcester, Massachusetts, USA
Distance from station: S 20mi, 32km
Updated: Thu, 12/14/2017 4:54pm
Clear
Clear
 Wind from W
Wind: W 14 mph , 22 km/h, Gust: 21 mph , 33 km/h
Temperature: 18°F , -8°C
Wind Chill: 4°F , -16°C
Dew Point: -0°F , -18°C
Humidity: 45%
Barometer: 29.75 inHg , 1007.5 hPa
Clouds: Clear
Visibility: 10 miles , 16 km
2017/12/14 21:54 KORH 142154Z 26012G18KT 10SM CLR M08/M18 A2975 RMK AO2 SLP093 T10781183
KORE - Orange, Massachusetts, USA
Distance from station: W 20mi, 33km
Updated: Wed, 12/13/2017 9:52am
NOT Current
Overcast
Overcast
 Wind from WNW
Wind: WNW 9 mph , 15 km/h, Gust: 20 mph , 31 km/h
Temperature: 18°F , -8°C
Wind Chill: 7°F , -14°C
Dew Point: 10°F , -12°C
Humidity: 73%
Barometer: 29.32 inHg , 992.9 hPa
Clouds: Overcast
Visibility: 10 miles , 16 km
Cloud details: Overcast 3900 ft
2017/12/13 14:52 KORE 131452Z AUTO 29008G17KT 10SM OVC039 M08/M12 A2932 RMK AO2 SLP936 T10831122 53012 TSNO
 
KASH - Nashua/Boire Fld, New Hampshire, USA
Distance from station: NE 24mi, 39km
Updated: Thu, 12/14/2017 4:56pm
Clear
Clear
 Wind from calm
Wind: Calm
Temperature: 21°F , -6°C
Dew Point: 3°F , -16°C
Humidity: 45%
Barometer: 29.79 inHg , 1008.8 hPa
Clouds: Clear
Visibility: 10 miles , 16 km
2017/12/14 21:56 KASH 142156Z 00000KT 10SM CLR M06/M16 A2979 RMK AO2 SLP100 T10611156
KEEN - Keene/Dillant, New Hampshire, USA
Distance from station: NW 30mi, 48km
Updated: Thu, 12/14/2017 4:56pm
Clear
Clear
 Wind from WSW
Wind: WSW 8 mph , 13 km/h
Temperature: 18°F , -8°C
Wind Chill: 8°F , -13°C
Dew Point: 3°F , -16°C
Humidity: 53%
Barometer: 29.81 inHg , 1009.5 hPa
Clouds: Clear
Visibility: 10 miles , 16 km
2017/12/14 21:56 KEEN 142156Z AUTO 24007KT 10SM CLR M08/M16 A2981 RMK AO2 SLP116 T10781156 FZRANO
 
KBOS - Boston, Massachusetts, USA
Distance from station: ESE 46mi, 74km
Updated: Thu, 12/14/2017 4:54pm
Few Clouds
Few Clouds
 Wind from W
Wind: W 15 mph , 24 km/h, Gust: 29 mph , 46 km/h
Temperature: 27°F , -3°C
Wind Chill: 15°F , -9°C
Dew Point: 3°F , -16°C
Humidity: 36%
Barometer: 29.80 inHg , 1009.1 hPa
Clouds: Few Clouds
Visibility: 10 miles , 16 km
Cloud details: Few Clouds 4500 ft
2017/12/14 21:54 KBOS 142154Z 28013G25KT 10SM FEW045 M03/M16 A2980 RMK AO2 SLP089 T10281156